This is the latest recevied weather packets stored in our database for station/object DC5DM-13. If no packets are shown the sender has not sent any weather packets the latest 10 day(s).
| Time | Temp. | Humidity | Pressure | Rain* | Wind** | Luminosity | Snow |
|---|---|---|---|---|---|---|---|
| 1788552346 | 13.89° C | 99% | 1015.9 hPa | 0 mm | - | - | - |
| 1788551776 | 13.89° C | 99% | 1016.2 hPa | 0 mm | - | - | - |
| 1788551146 | 13.89° C | 99% | 1016.3 hPa | 0 mm | - | - | - |
| 1788550577 | 13.89° C | 99% | 1016.1 hPa | 0 mm | - | - | - |
| 1788549946 | 13.89° C | 99% | 1016.1 hPa | 1.02 mm | - | - | - |
| 1788549376 | 13.89° C | 99% | 1015.7 hPa | 2.29 mm | - | - | - |
| 1788548745 | 13.89° C | 99% | 1015.8 hPa | 4.83 mm | - | - | - |
| 1788548176 | 13.89° C | 98% | 1015.4 hPa | 6.35 mm | - | - | - |
| 1788547546 | 13.89° C | 97% | 1015.5 hPa | 6.86 mm | - | - | - |
| 1788546976 | 13.89° C | 97% | 1015.3 hPa | 7.11 mm | - | - | - |
| 1788546351 | 15° C | 99% | 1015.2 hPa | 6.35 mm | - | - | - |
| 1788545777 | 15.56° C | 99% | 1015.2 hPa | 6.1 mm | - | - | - |
| 1788545145 | 16.11° C | 99% | 1014.8 hPa | 3.56 mm | - | - | - |
| 1788544577 | 16.67° C | 97% | 1014.4 hPa | 2.03 mm | - | - | - |
| 1788543946 | 16.67° C | 96% | 1014.3 hPa | 1.52 mm | - | - | - |
| 1788543376 | 17.78° C | 95% | 1013.9 hPa | 1.27 mm | - | - | - |
| 1788542746 | 20.56° C | 87% | 1013.3 hPa | 1.27 mm | - | - | - |
| 1788542181 | 22.22° C | 76% | 1012.7 hPa | 0 mm | - | - | - |
| 1788541546 | 22.22° C | 76% | 1012.7 hPa | 0 mm | - | - | - |
| 1788540976 | 22.22° C | 75% | 1012.8 hPa | 0 mm | - | - | - |
| 1788540346 | 22.78° C | 73% | 1012.7 hPa | 0 mm | - | - | - |
| 1788539779 | 22.78° C | 72% | 1012.7 hPa | 0 mm | - | - | - |
| 1788539145 | 23.33° C | 71% | 1012.7 hPa | 0 mm | - | - | - |
| 1788538576 | 23.33° C | 70% | 1012.6 hPa | 0 mm | - | - | - |
| 1788537946 | 23.33° C | 70% | 1012.6 hPa | 0 mm | - | - | - |
* Rain latest hour (hover to see other rain measurements)
** Current wind speed in m/s (hover to see current wind gust speed)